Time,TemperatureF,DewpointF,PressureIn,WindDirection,WindDirectionDegrees,WindSpeedMPH,WindSpeedGustMPH,Humidity,HourlyPrecipIn,Conditions,Clouds,dailyrainin,SoftwareType,DateUTC
2013-10-23 00:00:00,33.2,32.4,29.97,SW,236,2.0,8.0,97,0.00,,,0.00,Wunderground v.1.15,2013-10-23 05:00:00,
2013-10-23 00:04:00,33.0,32.2,29.97,WSW,245,2.0,8.0,97,0.00,,,0.00,Wunderground v.1.15,2013-10-23 05:04:00,
2013-10-23 00:06:00,33.0,32.2,29.97,WSW,257,2.0,8.0,97,0.00,,,0.00,Wunderground v.1.15,2013-10-23 05:06:00,
2013-10-23 00:08:00,33.0,32.2,29.97,WSW,246,1.0,8.0,97,0.00,,,0.00,Wunderground v.1.15,2013-10-23 05:08:00,
2013-10-23 00:10:00,33.0,32.5,29.97,WSW,238,1.0,8.0,98,0.00,,,0.00,Wunderground v.1.15,2013-10-23 05:10:00,
2013-10-23 00:12:00,33.0,32.5,29.97,WSW,246,1.0,8.0,98,0.00,,,0.00,Wunderground v.1.15,2013-10-23 05:12:00,
2013-10-23 00:14:00,33.0,32.5,29.97,WSW,256,1.0,8.0,98,0.00,,,0.00,Wunderground v.1.15,2013-10-23 05:14:00,
2013-10-23 00:20:00,33.1,32.6,29.98,West,270,2.0,8.0,98,0.00,,,0.00,Wunderground v.1.15,2013-10-23 05:20:00,
2013-10-23 00:22:00,33.1,32.6,29.97,West,277,2.0,8.0,98,0.00,,,0.00,Wunderground v.1.15,2013-10-23 05:22:00,
2013-10-23 00:24:00,33.1,32.6,29.97,West,276,2.0,8.0,98,0.00,,,0.00,Wunderground v.1.15,2013-10-23 05:24:00,
2013-10-23 00:26:00,33.2,32.7,29.97,West,271,2.0,8.0,98,0.00,,,0.00,Wunderground v.1.15,2013-10-23 05:26:00,
2013-10-23 00:28:00,33.3,32.8,29.97,WNW,294,3.0,8.0,98,0.00,,,0.00,Wunderground v.1.15,2013-10-23 05:28:00,
2013-10-23 00:30:00,33.3,32.8,29.98,West,281,3.0,8.0,98,0.00,,,0.00,Wunderground v.1.15,2013-10-23 05:30:00,
2013-10-23 00:34:00,33.3,32.8,29.98,West,276,4.0,8.0,98,0.00,,,0.00,Wunderground v.1.15,2013-10-23 05:34:00,
2013-10-23 00:36:00,33.2,32.7,29.97,WNW,288,4.0,8.0,98,0.00,,,0.00,Wunderground v.1.15,2013-10-23 05:36:00,
2013-10-23 00:40:00,33.2,32.7,29.97,West,260,3.0,8.0,98,0.00,,,0.00,Wunderground v.1.15,2013-10-23 05:40:00,
2013-10-23 00:42:00,33.2,32.7,29.98,WNW,297,3.0,8.0,98,0.00,,,0.00,Wunderground v.1.15,2013-10-23 05:42:00,
2013-10-23 00:44:00,33.2,32.7,29.98,WNW,290,3.0,8.0,98,0.00,,,0.00,Wunderground v.1.15,2013-10-23 05:44:00,
2013-10-23 00:48:00,33.2,32.7,29.98,WNW,302,3.0,8.0,98,0.00,,,0.00,Wunderground v.1.15,2013-10-23 05:48:00,
2013-10-23 00:50:00,33.2,32.7,29.97,NW,313,3.0,8.0,98,0.00,,,0.00,Wunderground v.1.15,2013-10-23 05:50:00,
2013-10-23 00:52:00,33.1,32.6,29.98,NW,309,3.0,8.0,98,0.00,,,0.00,Wunderground v.1.15,2013-10-23 05:52:00,
2013-10-23 00:54:00,33.1,32.6,29.98,NW,317,3.0,8.0,98,0.00,,,0.00,Wunderground v.1.15,2013-10-23 05:54:00,
2013-10-23 00:58:00,33.1,32.6,29.98,NNW,328,3.0,8.0,98,0.00,,,0.00,Wunderground v.1.15,2013-10-23 05:58:00,
2013-10-23 01:00:00,33.0,32.5,29.98,NNW,335,3.0,8.0,98,0.00,,,0.00,Wunderground v.1.15,2013-10-23 06:00:00,
2013-10-23 01:02:00,33.0,32.5,29.98,WNW,294,3.0,8.0,98,0.00,,,0.00,Wunderground v.1.15,2013-10-23 06:02:00,
2013-10-23 01:04:00,32.9,32.4,29.98,NNW,330,4.0,8.0,98,0.00,,,0.00,Wunderground v.1.15,2013-10-23 06:04:00,
2013-10-23 01:08:00,32.9,32.4,29.98,NW,323,4.0,8.0,98,0.00,,,0.00,Wunderground v.1.15,2013-10-23 06:08:00,
2013-10-23 01:10:00,32.8,32.3,29.98,NW,326,4.0,4.0,98,0.00,,,0.00,Wunderground v.1.15,2013-10-23 06:10:00,
2013-10-23 01:12:00,32.7,32.2,29.98,NW,304,4.0,5.0,98,0.00,,,0.00,Wunderground v.1.15,2013-10-23 06:12:00,
2013-10-23 01:14:00,32.7,32.2,29.98,NNW,339,4.0,8.0,98,0.00,,,0.00,Wunderground v.1.15,2013-10-23 06:14:00,
2013-10-23 01:16:00,32.7,32.2,29.97,North,353,4.0,8.0,98,0.00,,,0.00,Wunderground v.1.15,2013-10-23 06:16:00,
2013-10-23 01:18:00,32.7,32.2,29.97,NW,319,4.0,8.0,98,0.00,,,0.00,Wunderground v.1.15,2013-10-23 06:18:00,
2013-10-23 01:22:00,32.7,32.2,29.98,NW,320,5.0,8.0,98,0.00,,,0.00,Wunderground v.1.15,2013-10-23 06:22:00,
2013-10-23 01:24:00,32.7,32.2,29.98,NNW,330,5.0,8.0,98,0.00,,,0.00,Wunderground v.1.15,2013-10-23 06:24:00,
2013-10-23 01:26:00,32.7,32.2,29.98,NNW,335,5.0,8.0,98,0.00,,,0.00,Wunderground v.1.15,2013-10-23 06:26:00,
2013-10-23 01:28:00,32.7,31.9,29.98,NW,316,5.0,8.0,97,0.00,,,0.00,Wunderground v.1.15,2013-10-23 06:28:00,
2013-10-23 01:30:00,32.7,31.9,29.98,NNW,343,5.0,5.0,97,0.00,,,0.00,Wunderground v.1.15,2013-10-23 06:30:00,
2013-10-23 01:34:00,32.5,31.7,29.98,NW,316,4.0,8.0,97,0.00,,,0.00,Wunderground v.1.15,2013-10-23 06:34:00,
2013-10-23 01:36:00,32.5,31.7,29.98,NW,320,4.0,8.0,97,0.00,,,0.00,Wunderground v.1.15,2013-10-23 06:36:00,
2013-10-23 01:38:00,32.5,31.7,29.98,NW,315,4.0,8.0,97,0.00,,,0.00,Wunderground v.1.15,2013-10-23 06:38:00,
2013-10-23 01:40:00,32.4,31.6,29.98,NW,326,4.0,4.0,97,0.00,,,0.00,Wunderground v.1.15,2013-10-23 06:40:00,
2013-10-23 01:42:00,32.4,31.6,29.98,WNW,300,4.0,8.0,97,0.00,,,0.00,Wunderground v.1.15,2013-10-23 06:42:00,
2013-10-23 01:46:00,32.3,31.5,29.98,WNW,295,4.0,8.0,97,0.00,,,0.00,Wunderground v.1.15,2013-10-23 06:46:00,
2013-10-23 01:48:00,32.3,31.5,29.98,NNW,346,4.0,8.0,97,0.00,,,0.00,Wunderground v.1.15,2013-10-23 06:48:00,
2013-10-23 01:50:00,32.3,31.5,29.98,NNW,329,4.0,8.0,97,0.00,,,0.00,Wunderground v.1.15,2013-10-23 06:50:00,
2013-10-23 01:54:00,32.3,31.3,29.98,NNW,328,4.0,8.0,96,0.00,,,0.00,Wunderground v.1.15,2013-10-23 06:54:00,
2013-10-23 01:56:00,32.3,31.3,29.98,NNW,335,4.0,8.0,96,0.00,,,0.00,Wunderground v.1.15,2013-10-23 06:56:00,
2013-10-23 01:58:00,32.3,31.3,29.98,NW,304,4.0,8.0,96,0.00,,,0.00,Wunderground v.1.15,2013-10-23 06:58:00,
2013-10-23 02:04:00,32.1,31.1,29.98,NNW,337,4.0,8.0,96,0.00,,,0.00,Wunderground v.1.15,2013-10-23 07:04:00,
2013-10-23 02:06:00,32.1,31.1,29.98,NNW,333,4.0,8.0,96,0.00,,,0.00,Wunderground v.1.15,2013-10-23 07:06:00,
2013-10-23 02:10:00,32.0,30.7,29.98,NW,316,4.0,8.0,95,0.00,,,0.00,Wunderground v.1.15,2013-10-23 07:10:00,
2013-10-23 02:12:00,31.9,30.6,29.98,NNW,340,4.0,8.0,95,0.00,,,0.00,Wunderground v.1.15,2013-10-23 07:12:00,
2013-10-23 02:14:00,31.9,30.6,29.98,NNW,330,4.0,8.0,95,0.00,,,0.00,Wunderground v.1.15,2013-10-23 07:14:00,
2013-10-23 02:18:00,31.8,30.5,29.98,NNW,346,4.0,8.0,95,0.00,,,0.00,Wunderground v.1.15,2013-10-23 07:18:00,
2013-10-23 02:20:00,31.8,30.5,29.98,North,350,4.0,8.0,95,0.00,,,0.00,Wunderground v.1.15,2013-10-23 07:20:00,
2013-10-23 02:22:00,31.9,30.9,29.98,NW,317,5.0,8.0,96,0.00,,,0.00,Wunderground v.1.15,2013-10-23 07:22:00,
2013-10-23 02:24:00,31.9,30.6,29.98,NW,306,5.0,8.0,95,0.00,,,0.00,Wunderground v.1.15,2013-10-23 07:24:00,
2013-10-23 02:26:00,31.9,30.6,29.98,North,352,5.0,8.0,95,0.00,,,0.00,Wunderground v.1.15,2013-10-23 07:26:00,
2013-10-23 02:30:00,32.0,30.7,29.98,NNW,341,5.0,8.0,95,0.00,,,0.00,Wunderground v.1.15,2013-10-23 07:30:00,
2013-10-23 02:34:00,32.0,30.7,29.98,NNW,328,5.0,8.0,95,0.00,,,0.00,Wunderground v.1.15,2013-10-23 07:34:00,
2013-10-23 02:36:00,32.1,30.8,29.98,NNW,337,5.0,8.0,95,0.00,,,0.00,Wunderground v.1.15,2013-10-23 07:36:00,
2013-10-23 02:38:00,32.2,30.9,29.98,NNW,335,6.0,8.0,95,0.00,,,0.00,Wunderground v.1.15,2013-10-23 07:38:00,
2013-10-23 02:40:00,32.2,30.7,29.98,North,358,6.0,8.0,94,0.00,,,0.00,Wunderground v.1.15,2013-10-23 07:40:00,
2013-10-23 02:42:00,32.3,30.8,29.98,NNW,342,6.0,8.0,94,0.00,,,0.00,Wunderground v.1.15,2013-10-23 07:42:00,
2013-10-23 02:46:00,32.3,30.8,29.98,NNW,342,6.0,8.0,94,0.00,,,0.00,Wunderground v.1.15,2013-10-23 07:46:00,
2013-10-23 02:48:00,32.3,30.8,29.98,NNW,330,5.0,8.0,94,0.00,,,0.00,Wunderground v.1.15,2013-10-23 07:48:00,
2013-10-23 02:50:00,32.4,30.9,29.98,NNW,339,6.0,8.0,94,0.00,,,0.00,Wunderground v.1.15,2013-10-23 07:50:00,
2013-10-23 02:54:00,32.6,31.1,29.98,NNW,338,5.0,8.0,94,0.00,,,0.00,Wunderground v.1.15,2013-10-23 07:54:00,
2013-10-23 02:56:00,32.6,31.1,29.98,NNW,346,5.0,8.0,94,0.00,,,0.00,Wunderground v.1.15,2013-10-23 07:56:00,
2013-10-23 02:58:00,32.7,31.2,29.98,NNE,16,5.0,8.0,94,0.00,,,0.00,Wunderground v.1.15,2013-10-23 07:58:00,
2013-10-23 03:00:00,32.8,31.3,29.98,North,354,5.0,5.0,94,0.00,,,0.00,Wunderground v.1.15,2013-10-23 08:00:00,
2013-10-23 03:02:00,32.8,31.3,29.98,NNW,347,5.0,6.0,94,0.00,,,0.00,Wunderground v.1.15,2013-10-23 08:02:00,
2013-10-23 03:04:00,32.9,31.4,29.97,NNW,338,5.0,8.0,94,0.00,,,0.00,Wunderground v.1.15,2013-10-23 08:04:00,
2013-10-23 03:06:00,33.0,31.2,29.97,North,8,5.0,8.0,93,0.00,,,0.00,Wunderground v.1.15,2013-10-23 08:06:00,
2013-10-23 03:08:00,33.0,31.2,29.97,North,6,5.0,8.0,93,0.00,,,0.00,Wunderground v.1.15,2013-10-23 08:08:00,
2013-10-23 03:14:00,33.0,31.2,29.97,North,359,6.0,9.0,93,0.00,,,0.00,Wunderground v.1.15,2013-10-23 08:14:00,
2013-10-23 03:16:00,33.1,31.3,29.97,NNE,23,6.0,9.0,93,0.00,,,0.00,Wunderground v.1.15,2013-10-23 08:16:00,
2013-10-23 03:20:00,33.1,31.3,29.97,North,354,6.0,6.0,93,0.00,,,0.00,Wunderground v.1.15,2013-10-23 08:20:00,
2013-10-23 03:22:00,33.1,31.0,29.97,NW,320,6.0,8.0,92,0.00,,,0.00,Wunderground v.1.15,2013-10-23 08:22:00,
2013-10-23 03:24:00,33.0,31.2,29.98,WNW,295,6.0,8.0,93,0.00,,,0.00,Wunderground v.1.15,2013-10-23 08:24:00,
2013-10-23 03:26:00,33.0,31.2,29.98,WNW,295,6.0,8.0,93,0.00,,,0.00,Wunderground v.1.15,2013-10-23 08:26:00,
2013-10-23 03:32:00,33.0,31.2,29.97,NNW,328,5.0,8.0,93,0.00,,,0.00,Wunderground v.1.15,2013-10-23 08:32:00,
2013-10-23 03:34:00,33.1,31.3,29.97,WNW,300,5.0,8.0,93,0.00,,,0.00,Wunderground v.1.15,2013-10-23 08:34:00,
2013-10-23 03:36:00,33.0,31.2,29.97,NW,315,5.0,8.0,93,0.00,,,0.00,Wunderground v.1.15,2013-10-23 08:36:00,
2013-10-23 03:40:00,33.1,31.3,29.97,NW,321,5.0,8.0,93,0.00,,,0.00,Wunderground v.1.15,2013-10-23 08:40:00,
2013-10-23 03:42:00,33.1,31.3,29.98,NW,309,4.0,8.0,93,0.00,,,0.00,Wunderground v.1.15,2013-10-23 08:42:00,
2013-10-23 03:44:00,33.1,31.3,29.97,NNW,338,4.0,8.0,93,0.00,,,0.00,Wunderground v.1.15,2013-10-23 08:44:00,
2013-10-23 03:48:00,33.1,31.3,29.97,NW,316,3.0,8.0,93,0.00,,,0.00,Wunderground v.1.15,2013-10-23 08:48:00,
2013-10-23 03:50:00,33.1,31.3,29.97,WNW,293,3.0,3.0,93,0.00,,,0.00,Wunderground v.1.15,2013-10-23 08:50:00,
2013-10-23 03:52:00,33.1,31.6,29.98,WNW,302,3.0,7.0,94,0.00,,,0.00,Wunderground v.1.15,2013-10-23 08:52:00,
2013-10-23 03:54:00,33.1,31.6,29.98,NW,307,3.0,8.0,94,0.00,,,0.00,Wunderground v.1.15,2013-10-23 08:54:00,
2013-10-23 03:56:00,33.1,31.6,29.97,NW,315,3.0,8.0,94,0.00,,,0.00,Wunderground v.1.15,2013-10-23 08:56:00,
2013-10-23 03:58:00,33.1,31.6,29.98,NNW,335,4.0,8.0,94,0.00,,,0.00,Wunderground v.1.15,2013-10-23 08:58:00,
2013-10-23 04:02:00,33.1,31.6,29.98,WNW,297,4.0,8.0,94,0.00,,,0.00,Wunderground v.1.15,2013-10-23 09:02:00,
2013-10-23 04:04:00,33.2,31.7,29.98,WNW,295,4.0,8.0,94,0.00,,,0.00,Wunderground v.1.15,2013-10-23 09:04:00,
2013-10-23 04:06:00,33.2,31.7,29.98,NW,314,4.0,8.0,94,0.00,,,0.00,Wunderground v.1.15,2013-10-23 09:06:00,
2013-10-23 04:08:00,33.2,31.7,29.98,NW,321,4.0,8.0,94,0.00,,,0.00,Wunderground v.1.15,2013-10-23 09:08:00,
2013-10-23 04:10:00,33.2,31.7,29.98,WNW,298,3.0,3.0,94,0.00,,,0.00,Wunderground v.1.15,2013-10-23 09:10:00,
2013-10-23 04:12:00,33.2,31.4,29.98,NW,307,3.0,4.0,93,0.00,,,0.00,Wunderground v.1.15,2013-10-23 09:12:00,
2013-10-23 04:14:00,33.2,31.4,29.98,WNW,283,3.0,8.0,93,0.00,,,0.00,Wunderground v.1.15,2013-10-23 09:14:00,
2013-10-23 04:16:00,33.2,31.4,29.98,WNW,288,3.0,8.0,93,0.00,,,0.00,Wunderground v.1.15,2013-10-23 09:16:00,
2013-10-23 04:18:00,33.2,31.4,29.98,WNW,297,3.0,8.0,93,0.00,,,0.00,Wunderground v.1.15,2013-10-23 09:18:00,
2013-10-23 04:20:00,33.2,31.4,29.98,NW,307,3.0,3.0,93,0.00,,,0.00,Wunderground v.1.15,2013-10-23 09:20:00,
2013-10-23 04:22:00,33.2,31.4,29.98,WNW,298,3.0,8.0,93,0.00,,,0.00,Wunderground v.1.15,2013-10-23 09:22:00,
2013-10-23 04:24:00,33.2,31.4,29.98,WNW,298,3.0,8.0,93,0.00,,,0.00,Wunderground v.1.15,2013-10-23 09:24:00,
2013-10-23 04:26:00,33.2,31.4,29.98,WNW,297,3.0,8.0,93,0.00,,,0.00,Wunderground v.1.15,2013-10-23 09:26:00,
2013-10-23 04:30:00,33.3,31.5,29.98,WNW,302,3.0,8.0,93,0.00,,,0.00,Wunderground v.1.15,2013-10-23 09:30:00,
2013-10-23 04:32:00,33.3,31.5,29.98,West,281,3.0,8.0,93,0.00,,,0.00,Wunderground v.1.15,2013-10-23 09:32:00,
2013-10-23 04:34:00,33.3,31.5,29.98,WNW,290,3.0,8.0,93,0.00,,,0.00,Wunderground v.1.15,2013-10-23 09:34:00,
2013-10-23 04:38:00,33.3,31.5,29.98,WNW,287,3.0,8.0,93,0.00,,,0.00,Wunderground v.1.15,2013-10-23 09:38:00,
2013-10-23 04:40:00,33.3,31.5,29.98,WSW,252,2.0,8.0,93,0.00,,,0.00,Wunderground v.1.15,2013-10-23 09:40:00,
2013-10-23 04:42:00,33.3,31.5,29.98,WSW,246,2.0,8.0,93,0.00,,,0.00,Wunderground v.1.15,2013-10-23 09:42:00,
2013-10-23 04:44:00,33.3,31.5,29.98,West,262,2.0,8.0,93,0.00,,,0.00,Wunderground v.1.15,2013-10-23 09:44:00,
2013-10-23 04:48:00,33.3,31.5,29.98,WSW,257,3.0,8.0,93,0.00,,,0.00,Wunderground v.1.15,2013-10-23 09:48:00,
2013-10-23 04:50:00,33.3,31.5,29.98,West,276,2.0,2.0,93,0.00,,,0.00,Wunderground v.1.15,2013-10-23 09:50:00,
2013-10-23 04:52:00,33.3,31.5,29.99,WNW,294,2.0,8.0,93,0.00,,,0.00,Wunderground v.1.15,2013-10-23 09:52:00,
2013-10-23 04:54:00,33.4,31.6,29.98,West,259,2.0,8.0,93,0.00,,,0.00,Wunderground v.1.15,2013-10-23 09:54:00,
2013-10-23 04:56:00,33.4,31.6,29.99,WNW,290,2.0,8.0,93,0.00,,,0.00,Wunderground v.1.15,2013-10-23 09:56:00,
2013-10-23 04:58:00,33.4,31.6,29.99,West,259,2.0,8.0,93,0.00,,,0.00,Wunderground v.1.15,2013-10-23 09:58:00,
2013-10-23 05:00:00,33.4,31.6,29.99,West,267,2.0,8.0,93,0.00,,,0.00,Wunderground v.1.15,2013-10-23 10:00:00,
2013-10-23 05:02:00,33.4,31.6,29.99,West,278,2.0,8.0,93,0.00,,,0.00,Wunderground v.1.15,2013-10-23 10:02:00,
2013-10-23 05:04:00,33.4,31.6,29.99,WNW,283,2.0,8.0,93,0.00,,,0.00,Wunderground v.1.15,2013-10-23 10:04:00,
2013-10-23 05:06:00,33.4,31.6,29.99,West,276,2.0,8.0,93,0.00,,,0.00,Wunderground v.1.15,2013-10-23 10:06:00,
2013-10-23 05:08:00,33.4,31.6,29.99,WNW,298,2.0,8.0,93,0.00,,,0.00,Wunderground v.1.15,2013-10-23 10:08:00,
2013-10-23 05:12:00,33.4,31.6,29.99,WNW,287,2.0,8.0,93,0.00,,,0.00,Wunderground v.1.15,2013-10-23 10:12:00,
2013-10-23 05:14:00,33.4,31.6,29.99,West,278,2.0,8.0,93,0.00,,,0.00,Wunderground v.1.15,2013-10-23 10:14:00,
2013-10-23 05:16:00,33.4,31.6,29.99,West,278,2.0,8.0,93,0.00,,,0.00,Wunderground v.1.15,2013-10-23 10:16:00,
2013-10-23 05:22:00,33.4,31.6,29.99,West,274,3.0,8.0,93,0.00,,,0.00,Wunderground v.1.15,2013-10-23 10:22:00,
2013-10-23 05:24:00,33.4,31.6,29.99,West,281,4.0,8.0,93,0.00,,,0.00,Wunderground v.1.15,2013-10-23 10:24:00,
2013-10-23 05:28:00,33.3,31.5,29.99,West,276,4.0,8.0,93,0.00,,,0.00,Wunderground v.1.15,2013-10-23 10:28:00,
2013-10-23 05:30:00,33.3,31.5,30.00,WNW,292,4.0,4.0,93,0.00,,,0.00,Wunderground v.1.15,2013-10-23 10:30:00,
2013-10-23 05:32:00,33.2,31.4,30.00,WNW,288,4.0,8.0,93,0.00,,,0.00,Wunderground v.1.15,2013-10-23 10:32:00,
2013-10-23 05:34:00,33.2,31.4,30.00,West,281,4.0,8.0,93,0.00,,,0.00,Wunderground v.1.15,2013-10-23 10:34:00,
2013-10-23 05:36:00,33.2,31.4,30.00,WNW,283,3.0,8.0,93,0.00,,,0.00,Wunderground v.1.15,2013-10-23 10:36:00,
2013-10-23 05:40:00,33.1,31.3,30.00,WNW,297,3.0,8.0,93,0.00,,,0.00,Wunderground v.1.15,2013-10-23 10:40:00,
2013-10-23 05:42:00,33.1,31.3,30.00,West,281,3.0,8.0,93,0.00,,,0.00,Wunderground v.1.15,2013-10-23 10:42:00,
2013-10-23 05:46:00,33.0,31.2,30.00,WNW,302,3.0,8.0,93,0.00,,,0.00,Wunderground v.1.15,2013-10-23 10:46:00,
2013-10-23 05:48:00,33.0,31.2,30.00,WNW,287,3.0,8.0,93,0.00,,,0.00,Wunderground v.1.15,2013-10-23 10:48:00,
2013-10-23 05:50:00,33.0,31.2,30.00,WNW,290,4.0,8.0,93,0.00,,,0.00,Wunderground v.1.15,2013-10-23 10:50:00,
2013-10-23 05:52:00,32.9,31.1,30.00,NNW,330,4.0,8.0,93,0.00,,,0.00,Wunderground v.1.15,2013-10-23 10:52:00,
2013-10-23 05:54:00,32.9,31.1,30.00,NW,304,4.0,8.0,93,0.00,,,0.00,Wunderground v.1.15,2013-10-23 10:54:00,
2013-10-23 05:56:00,32.9,31.1,30.00,WNW,295,4.0,8.0,93,0.00,,,0.00,Wunderground v.1.15,2013-10-23 10:56:00,
2013-10-23 06:00:00,32.9,31.1,30.01,WNW,297,4.0,8.0,93,0.00,,,0.00,Wunderground v.1.15,2013-10-23 11:00:00,
2013-10-23 06:02:00,32.9,31.1,30.01,West,260,4.0,8.0,93,0.00,,,0.00,Wunderground v.1.15,2013-10-23 11:02:00,
2013-10-23 06:04:00,32.9,31.1,30.01,West,281,4.0,8.0,93,0.00,,,0.00,Wunderground v.1.15,2013-10-23 11:04:00,
2013-10-23 06:08:00,32.9,31.1,30.01,WNW,287,4.0,8.0,93,0.00,,,0.00,Wunderground v.1.15,2013-10-23 11:08:00,
2013-10-23 06:10:00,32.9,31.1,30.01,WNW,288,3.0,8.0,93,0.00,,,0.00,Wunderground v.1.15,2013-10-23 11:10:00,
2013-10-23 06:12:00,32.9,31.1,30.01,NNW,328,4.0,8.0,93,0.00,,,0.00,Wunderground v.1.15,2013-10-23 11:12:00,
2013-10-23 06:16:00,32.9,31.1,30.01,NW,307,4.0,8.0,93,0.00,,,0.00,Wunderground v.1.15,2013-10-23 11:16:00,
2013-10-23 06:20:00,32.9,31.1,30.01,NW,323,4.0,8.0,93,0.00,,,0.00,Wunderground v.1.15,2013-10-23 11:20:00,
2013-10-23 06:22:00,32.9,31.1,30.01,WNW,302,4.0,8.0,93,0.00,,,0.00,Wunderground v.1.15,2013-10-23 11:22:00,
2013-10-23 06:24:00,32.9,31.1,30.01,WNW,297,5.0,8.0,93,0.00,,,0.00,Wunderground v.1.15,2013-10-23 11:24:00,
2013-10-23 06:26:00,32.9,31.1,30.01,WNW,295,5.0,8.0,93,0.00,,,0.00,Wunderground v.1.15,2013-10-23 11:26:00,
2013-10-23 06:28:00,32.9,31.1,30.01,WNW,295,5.0,8.0,93,0.00,,,0.00,Wunderground v.1.15,2013-10-23 11:28:00,
2013-10-23 06:34:00,32.8,31.0,30.02,WNW,295,4.0,8.0,93,0.00,,,0.00,Wunderground v.1.15,2013-10-23 11:34:00,
2013-10-23 06:36:00,32.8,31.0,30.02,WNW,290,4.0,8.0,93,0.00,,,0.00,Wunderground v.1.15,2013-10-23 11:36:00,
2013-10-23 06:42:00,32.8,31.0,30.01,WNW,288,4.0,8.0,93,0.00,,,0.00,Wunderground v.1.15,2013-10-23 11:42:00,
2013-10-23 06:48:00,32.9,31.1,30.01,NW,326,3.0,8.0,93,0.00,,,0.00,Wunderground v.1.15,2013-10-23 11:48:00,
2013-10-23 06:52:00,32.9,31.1,30.01,NW,319,3.0,8.0,93,0.00,,,0.00,Wunderground v.1.15,2013-10-23 11:52:00,
2013-10-23 06:54:00,32.9,31.1,30.01,West,276,3.0,8.0,93,0.00,,,0.00,Wunderground v.1.15,2013-10-23 11:54:00,
2013-10-23 07:00:00,32.8,31.0,30.01,NNW,331,3.0,8.0,93,0.00,,,0.00,Wunderground v.1.15,2013-10-23 12:00:00,
2013-10-23 07:02:00,32.8,31.0,30.02,WNW,297,3.0,8.0,93,0.00,,,0.00,Wunderground v.1.15,2013-10-23 12:02:00,
2013-10-23 07:04:00,32.8,30.7,30.02,WNW,300,3.0,8.0,92,0.00,,,0.00,Wunderground v.1.15,2013-10-23 12:04:00,
2013-10-23 07:06:00,32.8,30.7,30.02,West,267,4.0,8.0,92,0.00,,,0.00,Wunderground v.1.15,2013-10-23 12:06:00,
2013-10-23 07:08:00,32.8,30.7,30.02,WNW,293,4.0,8.0,92,0.00,,,0.00,Wunderground v.1.15,2013-10-23 12:08:00,
2013-10-23 07:10:00,32.8,30.7,30.02,West,274,4.0,4.0,92,0.00,,,0.00,Wunderground v.1.15,2013-10-23 12:10:00,
2013-10-23 07:12:00,32.7,30.6,30.02,West,278,4.0,8.0,92,0.00,,,0.00,Wunderground v.1.15,2013-10-23 12:12:00,
2013-10-23 07:14:00,32.7,30.6,30.02,WNW,288,3.0,8.0,92,0.00,,,0.00,Wunderground v.1.15,2013-10-23 12:14:00,
2013-10-23 07:16:00,32.7,30.9,30.02,West,276,4.0,8.0,93,0.00,,,0.00,Wunderground v.1.15,2013-10-23 12:16:00,
2013-10-23 07:20:00,32.7,30.9,30.02,WSW,245,3.0,3.0,93,0.00,,,0.00,Wunderground v.1.15,2013-10-23 12:20:00,
2013-10-23 07:22:00,32.6,30.8,30.02,West,269,3.0,8.0,93,0.00,,,0.00,Wunderground v.1.15,2013-10-23 12:22:00,
2013-10-23 07:26:00,32.6,30.8,30.02,WNW,301,2.0,8.0,93,0.00,,,0.00,Wunderground v.1.15,2013-10-23 12:26:00,
2013-10-23 07:28:00,32.5,30.7,30.02,West,278,2.0,8.0,93,0.00,,,0.00,Wunderground v.1.15,2013-10-23 12:28:00,
2013-10-23 07:30:00,32.5,30.7,30.02,West,281,2.0,8.0,93,0.00,,,0.00,Wunderground v.1.15,2013-10-23 12:30:00,
2013-10-23 07:32:00,32.4,30.6,30.02,West,260,2.0,8.0,93,0.00,,,0.00,Wunderground v.1.15,2013-10-23 12:32:00,
2013-10-23 07:34:00,32.4,30.6,30.02,WNW,287,2.0,8.0,93,0.00,,,0.00,Wunderground v.1.15,2013-10-23 12:34:00,
2013-10-23 07:36:00,32.3,30.5,30.02,West,269,2.0,8.0,93,0.00,,,0.00,Wunderground v.1.15,2013-10-23 12:36:00,
2013-10-23 07:38:00,32.3,30.8,30.02,West,265,2.0,8.0,94,0.00,,,0.00,Wunderground v.1.15,2013-10-23 12:38:00,
2013-10-23 07:40:00,32.3,30.8,30.02,WNW,284,2.0,2.0,94,0.00,,,0.00,Wunderground v.1.15,2013-10-23 12:40:00,
2013-10-23 07:44:00,32.2,30.7,30.03,WNW,293,3.0,8.0,94,0.00,,,0.00,Wunderground v.1.15,2013-10-23 12:44:00,
2013-10-23 07:46:00,32.2,30.7,30.03,West,280,3.0,8.0,94,0.00,,,0.00,Wunderground v.1.15,2013-10-23 12:46:00,
2013-10-23 07:48:00,32.2,30.7,30.03,West,278,3.0,8.0,94,0.00,,,0.00,Wunderground v.1.15,2013-10-23 12:48:00,
2013-10-23 07:50:00,32.1,30.6,30.03,WNW,298,3.0,8.0,94,0.00,,,0.00,Wunderground v.1.15,2013-10-23 12:50:00,
2013-10-23 07:54:00,32.1,30.6,30.03,WNW,298,3.0,8.0,94,0.00,,,0.00,Wunderground v.1.15,2013-10-23 12:54:00,
2013-10-23 07:58:00,32.1,30.6,30.03,NW,313,3.0,8.0,94,0.00,,,0.00,Wunderground v.1.15,2013-10-23 12:58:00,
2013-10-23 08:00:00,32.1,30.6,30.03,WNW,291,3.0,3.0,94,0.00,,,0.00,Wunderground v.1.15,2013-10-23 13:00:00,
2013-10-23 08:02:00,32.2,30.7,30.03,WNW,297,3.0,8.0,94,0.00,,,0.00,Wunderground v.1.15,2013-10-23 13:02:00,
2013-10-23 08:04:00,32.2,30.7,30.03,West,271,3.0,8.0,94,0.00,,,0.00,Wunderground v.1.15,2013-10-23 13:04:00,
2013-10-23 08:08:00,32.3,30.8,30.03,West,279,2.0,8.0,94,0.00,,,0.00,Wunderground v.1.15,2013-10-23 13:08:00,
2013-10-23 08:10:00,32.3,30.8,30.04,WNW,283,2.0,2.0,94,0.00,,,0.00,Wunderground v.1.15,2013-10-23 13:10:00,
2013-10-23 08:12:00,32.3,30.8,30.04,West,274,2.0,8.0,94,0.00,,,0.00,Wunderground v.1.15,2013-10-23 13:12:00,
2013-10-23 08:14:00,32.3,30.8,30.04,WNW,285,2.0,8.0,94,0.00,,,0.00,Wunderground v.1.15,2013-10-23 13:14:00,
2013-10-23 08:20:00,32.3,30.8,30.04,West,263,2.0,2.0,94,0.00,,,0.00,Wunderground v.1.15,2013-10-23 13:20:00,
2013-10-23 08:22:00,32.3,30.8,30.04,WSW,250,2.0,8.0,94,0.00,,,0.00,Wunderground v.1.15,2013-10-23 13:22:00,
2013-10-23 08:26:00,32.3,30.8,30.05,WSW,250,2.0,8.0,94,0.00,,,0.00,Wunderground v.1.15,2013-10-23 13:26:00,
2013-10-23 08:28:00,32.2,30.7,30.05,West,280,1.0,8.0,94,0.00,,,0.00,Wunderground v.1.15,2013-10-23 13:28:00,
2013-10-23 08:32:00,32.2,30.7,30.05,West,269,2.0,8.0,94,0.00,,,0.00,Wunderground v.1.15,2013-10-23 13:32:00,
2013-10-23 08:34:00,32.3,30.8,30.05,West,265,2.0,8.0,94,0.00,,,0.00,Wunderground v.1.15,2013-10-23 13:34:00,
2013-10-23 08:36:00,32.3,30.8,30.05,West,267,2.0,8.0,94,0.00,,,0.00,Wunderground v.1.15,2013-10-23 13:36:00,
2013-10-23 08:38:00,32.4,30.9,30.05,WSW,245,2.0,8.0,94,0.00,,,0.00,Wunderground v.1.15,2013-10-23 13:38:00,
2013-10-23 08:40:00,32.4,30.9,30.05,WSW,239,2.0,2.0,94,0.00,,,0.00,Wunderground v.1.15,2013-10-23 13:40:00,
2013-10-23 08:42:00,32.4,30.9,30.05,WNW,287,2.0,8.0,94,0.00,,,0.00,Wunderground v.1.15,2013-10-23 13:42:00,
2013-10-23 08:44:00,32.5,31.0,30.05,West,260,2.0,8.0,94,0.00,,,0.00,Wunderground v.1.15,2013-10-23 13:44:00,
2013-10-23 08:46:00,32.6,31.1,30.05,WSW,255,1.0,8.0,94,0.00,,,0.00,Wunderground v.1.15,2013-10-23 13:46:00,
2013-10-23 08:48:00,32.8,31.3,30.05,West,259,1.0,8.0,94,0.00,,,0.00,Wunderground v.1.15,2013-10-23 13:48:00,
2013-10-23 08:50:00,32.9,31.4,30.05,West,280,1.0,1.0,94,0.00,,,0.00,Wunderground v.1.15,2013-10-23 13:50:00,
2013-10-23 08:52:00,33.1,31.6,30.05,West,267,1.0,8.0,94,0.00,,,0.00,Wunderground v.1.15,2013-10-23 13:52:00,
2013-10-23 08:54:00,33.3,31.8,30.05,NW,305,1.0,8.0,94,0.00,,,0.00,Wunderground v.1.15,2013-10-23 13:54:00,
2013-10-23 08:56:00,33.4,31.9,30.05,West,278,1.0,8.0,94,0.00,,,0.00,Wunderground v.1.15,2013-10-23 13:56:00,
2013-10-23 08:58:00,33.5,32.0,30.06,West,281,2.0,8.0,94,0.00,,,0.00,Wunderground v.1.15,2013-10-23 13:58:00,
2013-10-23 09:00:00,33.6,32.1,30.05,WNW,294,2.0,2.0,94,0.00,,,0.00,Wunderground v.1.15,2013-10-23 14:00:00,
2013-10-23 09:04:00,33.7,31.9,30.05,West,279,3.0,8.0,93,0.00,,,0.00,Wunderground v.1.15,2013-10-23 14:04:00,
2013-10-23 09:06:00,33.7,31.9,30.05,West,276,3.0,8.0,93,0.00,,,0.00,Wunderground v.1.15,2013-10-23 14:06:00,
2013-10-23 09:10:00,33.9,32.1,30.05,West,277,3.0,3.0,93,0.00,,,0.00,Wunderground v.1.15,2013-10-23 14:10:00,
2013-10-23 09:12:00,34.1,32.3,30.05,West,276,3.0,8.0,93,0.00,,,0.00,Wunderground v.1.15,2013-10-23 14:12:00,
2013-10-23 09:14:00,34.2,32.4,30.05,SW,221,3.0,8.0,93,0.00,,,0.00,Wunderground v.1.15,2013-10-23 14:14:00,
2013-10-23 09:18:00,34.4,32.6,30.06,West,276,3.0,8.0,93,0.00,,,0.00,Wunderground v.1.15,2013-10-23 14:18:00,
2013-10-23 09:20:00,34.5,32.4,30.06,West,267,3.0,8.0,92,0.00,,,0.00,Wunderground v.1.15,2013-10-23 14:20:00,
2013-10-23 09:24:00,34.7,32.6,30.05,West,262,4.0,8.0,92,0.00,,,0.00,Wunderground v.1.15,2013-10-23 14:24:00,
2013-10-23 09:26:00,34.7,32.6,30.06,West,261,4.0,8.0,92,0.00,,,0.00,Wunderground v.1.15,2013-10-23 14:26:00,
2013-10-23 09:28:00,34.9,32.8,30.05,WSW,256,4.0,8.0,92,0.00,,,0.00,Wunderground v.1.15,2013-10-23 14:28:00,
2013-10-23 09:30:00,35.0,32.9,30.05,West,274,4.0,8.0,92,0.00,,,0.00,Wunderground v.1.15,2013-10-23 14:30:00,
2013-10-23 09:32:00,35.1,33.0,30.05,NW,304,4.0,8.0,92,0.00,,,0.00,Wunderground v.1.15,2013-10-23 14:32:00,
2013-10-23 09:36:00,35.5,33.4,30.05,West,264,4.0,8.0,92,0.00,,,0.00,Wunderground v.1.15,2013-10-23 14:36:00,
2013-10-23 09:38:00,35.5,33.1,30.05,WNW,285,5.0,8.0,91,0.00,,,0.00,Wunderground v.1.15,2013-10-23 14:38:00,
2013-10-23 09:40:00,35.5,32.9,30.05,WSW,249,5.0,8.0,90,0.00,,,0.00,Wunderground v.1.15,2013-10-23 14:40:00,
2013-10-23 09:42:00,35.7,33.3,30.05,WSW,238,5.0,8.0,91,0.00,,,0.00,Wunderground v.1.15,2013-10-23 14:42:00,
2013-10-23 09:46:00,36.1,33.7,30.05,WSW,258,5.0,8.0,91,0.00,,,0.00,Wunderground v.1.15,2013-10-23 14:46:00,
2013-10-23 09:48:00,36.3,33.9,30.05,West,276,5.0,8.0,91,0.00,,,0.00,Wunderground v.1.15,2013-10-23 14:48:00,
2013-10-23 09:50:00,36.3,33.6,30.05,West,267,4.0,8.0,90,0.00,,,0.00,Wunderground v.1.15,2013-10-23 14:50:00,
2013-10-23 09:52:00,36.4,33.7,30.05,WNW,288,4.0,8.0,90,0.00,,,0.00,Wunderground v.1.15,2013-10-23 14:52:00,
2013-10-23 09:54:00,36.5,33.8,30.05,WSW,248,4.0,8.0,90,0.00,,,0.00,Wunderground v.1.15,2013-10-23 14:54:00,
2013-10-23 09:56:00,36.6,33.9,30.05,WSW,250,5.0,8.0,90,0.00,,,0.00,Wunderground v.1.15,2013-10-23 14:56:00,
2013-10-23 09:58:00,36.7,34.0,30.05,West,276,5.0,8.0,90,0.00,,,0.00,Wunderground v.1.15,2013-10-23 14:58:00,
2013-10-23 10:00:00,36.8,33.9,30.05,WSW,256,5.0,8.0,89,0.00,,,0.00,Wunderground v.1.15,2013-10-23 15:00:00,
2013-10-23 10:02:00,36.8,33.6,30.05,WNW,284,5.0,8.0,88,0.00,,,0.00,Wunderground v.1.15,2013-10-23 15:02:00,
2013-10-23 10:04:00,37.0,34.1,30.05,West,278,5.0,8.0,89,0.00,,,0.00,Wunderground v.1.15,2013-10-23 15:04:00,
2013-10-23 10:06:00,37.1,33.9,30.05,West,281,5.0,8.0,88,0.00,,,0.00,Wunderground v.1.15,2013-10-23 15:06:00,
2013-10-23 10:08:00,37.4,34.2,30.05,West,278,5.0,8.0,88,0.00,,,0.00,Wunderground v.1.15,2013-10-23 15:08:00,
2013-10-23 10:10:00,37.5,34.3,30.05,West,273,5.0,8.0,88,0.00,,,0.00,Wunderground v.1.15,2013-10-23 15:10:00,
2013-10-23 10:12:00,37.7,34.5,30.05,WNW,302,4.0,8.0,88,0.00,,,0.00,Wunderground v.1.15,2013-10-23 15:12:00,
2013-10-23 10:16:00,38.1,34.6,30.05,SW,235,5.0,8.0,87,0.00,,,0.00,Wunderground v.1.15,2013-10-23 15:16:00,
2013-10-23 10:18:00,38.3,34.8,30.05,WSW,245,5.0,8.0,87,0.00,,,0.00,Wunderground v.1.15,2013-10-23 15:18:00,
2013-10-23 10:20:00,38.4,34.9,30.05,NW,321,5.0,8.0,87,0.00,,,0.00,Wunderground v.1.15,2013-10-23 15:20:00,
2013-10-23 10:22:00,38.5,34.7,30.05,WNW,283,5.0,8.0,86,0.00,,,0.00,Wunderground v.1.15,2013-10-23 15:22:00,
2013-10-23 10:26:00,38.6,34.5,30.05,West,277,5.0,8.0,85,0.00,,,0.00,Wunderground v.1.15,2013-10-23 15:26:00,
2013-10-23 10:32:00,39.1,35.0,30.06,WSW,251,5.0,8.0,85,0.00,,,0.00,Wunderground v.1.15,2013-10-23 15:32:00,
2013-10-23 10:34:00,39.3,34.9,30.05,WSW,248,5.0,8.0,84,0.00,,,0.00,Wunderground v.1.15,2013-10-23 15:34:00,
2013-10-23 10:36:00,39.5,34.8,30.05,SW,231,5.0,8.0,83,0.00,,,0.00,Wunderground v.1.15,2013-10-23 15:36:00,
2013-10-23 10:40:00,39.6,34.2,30.05,WNW,290,5.0,8.0,81,0.00,,,0.00,Wunderground v.1.15,2013-10-23 15:40:00,
2013-10-23 10:42:00,39.7,34.7,30.05,West,269,5.0,8.0,82,0.00,,,0.00,Wunderground v.1.15,2013-10-23 15:42:00,
2013-10-23 10:46:00,39.9,34.9,30.05,West,276,5.0,8.0,82,0.00,,,0.00,Wunderground v.1.15,2013-10-23 15:46:00,
2013-10-23 10:50:00,40.0,34.6,30.05,West,263,4.0,8.0,81,0.00,,,0.00,Wunderground v.1.15,2013-10-23 15:50:00,
2013-10-23 10:52:00,40.2,34.5,30.05,WSW,252,5.0,8.0,80,0.00,,,0.00,Wunderground v.1.15,2013-10-23 15:52:00,
2013-10-23 10:54:00,40.2,34.2,30.06,WNW,297,5.0,8.0,79,0.00,,,0.00,Wunderground v.1.15,2013-10-23 15:54:00,
2013-10-23 10:56:00,40.5,34.8,30.06,West,269,6.0,8.0,80,0.00,,,0.00,Wunderground v.1.15,2013-10-23 15:56:00,
2013-10-23 11:00:00,40.8,34.5,30.06,WNW,295,7.0,11.0,78,0.00,,,0.00,Wunderground v.1.15,2013-10-23 16:00:00,
2013-10-23 11:02:00,40.8,33.8,30.05,NW,316,7.0,11.0,76,0.00,,,0.00,Wunderground v.1.15,2013-10-23 16:02:00,
2013-10-23 11:08:00,41.2,34.5,30.06,WNW,290,7.0,11.0,77,0.00,,,0.00,Wunderground v.1.15,2013-10-23 16:08:00,
2013-10-23 11:10:00,41.1,33.8,30.06,WNW,303,7.0,7.0,75,0.00,,,0.00,Wunderground v.1.15,2013-10-23 16:10:00,
2013-10-23 11:14:00,40.9,33.6,30.06,NW,312,7.0,9.0,75,0.00,,,0.00,Wunderground v.1.15,2013-10-23 16:14:00,
2013-10-23 11:16:00,41.0,34.0,30.06,West,281,7.0,9.0,76,0.00,,,0.00,Wunderground v.1.15,2013-10-23 16:16:00,
2013-10-23 11:18:00,41.0,34.0,30.06,West,269,7.0,9.0,76,0.00,,,0.00,Wunderground v.1.15,2013-10-23 16:18:00,
2013-10-23 11:22:00,41.3,33.6,30.05,West,276,7.0,8.0,74,0.00,,,0.00,Wunderground v.1.15,2013-10-23 16:22:00,
2013-10-23 11:26:00,41.5,33.8,30.05,SW,226,7.0,8.0,74,0.00,,,0.00,Wunderground v.1.15,2013-10-23 16:26:00,
2013-10-23 11:30:00,41.6,33.6,30.05,WSW,243,6.0,6.0,73,0.00,,,0.00,Wunderground v.1.15,2013-10-23 16:30:00,
2013-10-23 11:32:00,41.8,34.1,30.06,NW,319,6.0,9.0,74,0.00,,,0.00,Wunderground v.1.15,2013-10-23 16:32:00,
2013-10-23 11:34:00,41.9,33.9,30.06,SW,225,6.0,9.0,73,0.00,,,0.00,Wunderground v.1.15,2013-10-23 16:34:00,
2013-10-23 11:36:00,41.7,33.0,30.06,WSW,246,7.0,9.0,71,0.00,,,0.01,Wunderground v.1.15,2013-10-23 16:36:00,
2013-10-23 11:38:00,41.5,33.1,30.06,West,262,7.0,9.0,72,0.00,,,0.01,Wunderground v.1.15,2013-10-23 16:38:00,
2013-10-23 11:42:00,41.7,33.3,30.06,SW,225,7.0,8.0,72,0.00,,,0.01,Wunderground v.1.15,2013-10-23 16:42:00,
2013-10-23 11:44:00,41.8,33.4,30.05,NW,308,7.0,10.0,72,0.00,,,0.01,Wunderground v.1.15,2013-10-23 16:44:00,
2013-10-23 11:46:00,41.8,32.4,30.05,WSW,243,7.0,10.0,69,0.00,,,0.01,Wunderground v.1.15,2013-10-23 16:46:00,
2013-10-23 11:49:00,42.0,33.6,30.05,WNW,288,7.0,10.0,72,0.00,,,0.01,Wunderground v.1.15,2013-10-23 16:49:00,
2013-10-23 11:50:00,42.1,33.7,30.05,WNW,283,7.0,8.0,72,0.00,,,0.01,Wunderground v.1.15,2013-10-23 16:50:00,
2013-10-23 11:52:00,42.2,33.5,30.05,WSW,256,8.0,8.0,71,0.00,,,0.01,Wunderground v.1.15,2013-10-23 16:52:00,
2013-10-23 11:58:00,42.8,32.6,30.05,SW,231,8.0,9.0,67,0.00,,,0.01,Wunderground v.1.15,2013-10-23 16:58:00,
2013-10-23 12:00:00,42.9,33.1,30.05,WSW,256,8.0,11.0,68,0.00,,,0.01,Wunderground v.1.15,2013-10-23 17:00:00,
2013-10-23 12:02:00,43.0,33.9,30.05,West,267,8.0,11.0,70,0.00,,,0.01,Wunderground v.1.15,2013-10-23 17:02:00,
2013-10-23 12:04:00,43.2,33.3,30.05,West,260,9.0,11.0,68,0.00,,,0.01,Wunderground v.1.15,2013-10-23 17:04:00,
2013-10-23 12:08:00,43.3,33.8,30.05,WSW,242,9.0,11.0,69,0.00,,,0.01,Wunderground v.1.15,2013-10-23 17:08:00,
2013-10-23 12:10:00,43.3,33.8,30.05,West,276,9.0,10.0,69,0.00,,,0.01,Wunderground v.1.15,2013-10-23 17:10:00,
2013-10-23 12:14:00,43.4,33.9,30.05,SW,233,8.0,10.0,69,0.00,,,0.01,Wunderground v.1.15,2013-10-23 17:14:00,
2013-10-23 12:16:00,43.2,33.0,30.05,WSW,251,9.0,10.0,67,0.00,,,0.01,Wunderground v.1.15,2013-10-23 17:16:00,
2013-10-23 12:20:00,43.0,34.6,30.05,West,266,8.0,8.0,72,0.00,,,0.01,Wunderground v.1.15,2013-10-23 17:20:00,
2013-10-23 12:22:00,43.0,33.9,30.05,WSW,246,8.0,9.0,70,0.00,,,0.01,Wunderground v.1.15,2013-10-23 17:22:00,
2013-10-23 12:26:00,43.1,33.6,30.04,SW,228,8.0,9.0,69,0.00,,,0.01,Wunderground v.1.15,2013-10-23 17:26:00,
2013-10-23 12:28:00,43.3,34.2,30.04,WSW,248,8.0,11.0,70,0.00,,,0.01,Wunderground v.1.15,2013-10-23 17:28:00,
2013-10-23 12:30:00,43.5,34.0,30.04,WSW,245,8.0,11.0,69,0.00,,,0.01,Wunderground v.1.15,2013-10-23 17:30:00,
2013-10-23 12:32:00,43.6,34.1,30.04,WSW,250,8.0,12.0,69,0.00,,,0.01,Wunderground v.1.15,2013-10-23 17:32:00,
2013-10-23 12:36:00,43.9,33.6,30.04,WSW,252,8.0,12.0,67,0.00,,,0.01,Wunderground v.1.15,2013-10-23 17:36:00,
2013-10-23 12:38:00,44.0,34.1,30.04,SW,225,8.0,13.0,68,0.00,,,0.01,Wunderground v.1.15,2013-10-23 17:38:00,
2013-10-23 12:40:00,43.7,33.5,30.04,WSW,243,9.0,10.0,67,0.00,,,0.01,Wunderground v.1.15,2013-10-23 17:40:00,
2013-10-23 12:42:00,43.6,33.7,30.04,WSW,250,9.0,10.0,68,0.00,,,0.01,Wunderground v.1.15,2013-10-23 17:42:00,
2013-10-23 12:44:00,43.4,33.5,30.04,WSW,255,9.0,10.0,68,0.00,,,0.01,Wunderground v.1.15,2013-10-23 17:44:00,
2013-10-23 12:48:00,43.1,33.3,30.04,West,281,9.0,10.0,68,0.00,,,0.01,Wunderground v.1.15,2013-10-23 17:48:00,
2013-10-23 12:50:00,43.2,34.1,30.04,WSW,258,8.0,8.0,70,0.00,,,0.01,Wunderground v.1.15,2013-10-23 17:50:00,
2013-10-23 12:52:00,43.4,35.0,30.04,WSW,255,7.0,8.0,72,0.00,,,0.01,Wunderground v.1.15,2013-10-23 17:52:00,
2013-10-23 12:54:00,43.6,33.7,30.03,WSW,242,8.0,9.0,68,0.00,,,0.01,Wunderground v.1.15,2013-10-23 17:54:00,
2013-10-23 13:00:00,43.2,34.1,30.03,SW,232,9.0,9.0,70,0.00,,,0.01,Wunderground v.1.15,2013-10-23 18:00:00,
2013-10-23 13:02:00,43.1,34.3,30.03,WSW,237,9.0,12.0,71,0.00,,,0.01,Wunderground v.1.15,2013-10-23 18:02:00,
2013-10-23 13:06:00,42.9,33.4,30.03,WNW,284,9.0,12.0,69,0.00,,,0.01,Wunderground v.1.15,2013-10-23 18:06:00,
2013-10-23 13:10:00,42.8,33.0,30.03,WSW,249,8.0,10.0,68,0.00,,,0.01,Wunderground v.1.15,2013-10-23 18:10:00,
2013-10-23 13:12:00,42.8,33.7,30.03,WSW,252,9.0,10.0,70,0.00,,,0.01,Wunderground v.1.15,2013-10-23 18:12:00,
2013-10-23 13:14:00,42.7,33.2,30.03,West,264,8.0,10.0,69,0.00,,,0.01,Wunderground v.1.15,2013-10-23 18:14:00,
2013-10-23 13:16:00,42.6,33.5,30.03,WNW,299,8.0,10.0,70,0.00,,,0.01,Wunderground v.1.15,2013-10-23 18:16:00,
2013-10-23 13:18:00,42.6,32.8,30.03,WNW,298,8.0,10.0,68,0.00,,,0.01,Wunderground v.1.15,2013-10-23 18:18:00,
2013-10-23 13:20:00,42.6,33.1,30.03,WNW,284,9.0,11.0,69,0.00,,,0.01,Wunderground v.1.15,2013-10-23 18:20:00,
2013-10-23 13:22:00,42.6,33.1,30.03,West,267,9.0,11.0,69,0.00,,,0.01,Wunderground v.1.15,2013-10-23 18:22:00,
2013-10-23 13:24:00,42.6,33.9,30.03,WSW,257,9.0,11.0,71,0.00,,,0.01,Wunderground v.1.15,2013-10-23 18:24:00,
2013-10-23 13:26:00,42.6,33.5,30.03,WSW,258,9.0,11.0,70,0.00,,,0.01,Wunderground v.1.15,2013-10-23 18:26:00,
2013-10-23 13:28:00,42.5,33.0,30.03,WSW,256,9.0,11.0,69,0.00,,,0.01,Wunderground v.1.15,2013-10-23 18:28:00,
2013-10-23 13:30:00,42.5,33.4,30.03,WNW,285,9.0,11.0,70,0.00,,,0.01,Wunderground v.1.15,2013-10-23 18:30:00,
2013-10-23 13:32:00,42.4,32.9,30.03,NW,308,9.0,11.0,69,0.00,,,0.01,Wunderground v.1.15,2013-10-23 18:32:00,
2013-10-23 13:34:00,42.4,33.3,30.03,WNW,290,9.0,11.0,70,0.00,,,0.01,Wunderground v.1.15,2013-10-23 18:34:00,
2013-10-23 13:36:00,42.4,33.3,30.03,WNW,297,9.0,11.0,70,0.00,,,0.01,Wunderground v.1.15,2013-10-23 18:36:00,
2013-10-23 13:40:00,42.6,33.1,30.03,WSW,249,8.0,9.0,69,0.00,,,0.01,Wunderground v.1.15,2013-10-23 18:40:00,
2013-10-23 13:42:00,42.7,33.2,30.03,NW,306,8.0,9.0,69,0.00,,,0.01,Wunderground v.1.15,2013-10-23 18:42:00,
2013-10-23 13:44:00,42.7,33.2,30.03,WSW,253,8.0,9.0,69,0.00,,,0.01,Wunderground v.1.15,2013-10-23 18:44:00,
2013-10-23 13:48:00,42.9,33.4,30.03,West,264,8.0,9.0,69,0.00,,,0.01,Wunderground v.1.15,2013-10-23 18:48:00,
2013-10-23 13:50:00,42.8,32.6,30.03,NW,316,8.0,8.0,67,0.00,,,0.01,Wunderground v.1.15,2013-10-23 18:50:00,
2013-10-23 13:52:00,42.7,32.1,30.03,NW,307,8.0,8.0,66,0.00,,,0.01,Wunderground v.1.15,2013-10-23 18:52:00,
2013-10-23 13:54:00,42.5,32.3,30.03,WNW,301,8.0,12.0,67,0.00,,,0.01,Wunderground v.1.15,2013-10-23 18:54:00,
2013-10-23 13:58:00,42.2,32.4,30.03,NW,316,10.0,15.0,68,0.00,,,0.01,Wunderground v.1.15,2013-10-23 18:58:00,
2013-10-23 14:00:00,42.0,31.8,30.03,West,281,10.0,10.0,67,0.00,,,0.01,Wunderground v.1.15,2013-10-23 19:00:00,
2013-10-23 14:02:00,41.9,32.1,30.03,West,271,10.0,11.0,68,0.00,,,0.01,Wunderground v.1.15,2013-10-23 19:02:00,
2013-10-23 14:08:00,41.7,32.6,30.03,West,262,9.0,11.0,70,0.00,,,0.01,Wunderground v.1.15,2013-10-23 19:08:00,
2013-10-23 14:12:00,41.6,32.5,30.03,WNW,300,9.0,9.0,70,0.00,,,0.01,Wunderground v.1.15,2013-10-23 19:12:00,
2013-10-23 14:14:00,41.7,33.0,30.03,WSW,245,8.0,9.0,71,0.00,,,0.01,Wunderground v.1.15,2013-10-23 19:14:00,
2013-10-23 14:16:00,41.8,33.4,30.03,West,278,8.0,13.0,72,0.00,,,0.01,Wunderground v.1.15,2013-10-23 19:16:00,
2013-10-23 14:22:00,42.5,32.7,30.03,SSW,212,8.0,12.0,68,0.00,,,0.01,Wunderground v.1.15,2013-10-23 19:22:00,
2013-10-23 14:26:00,42.7,32.5,30.03,WSW,253,9.0,14.0,67,0.00,,,0.01,Wunderground v.1.15,2013-10-23 19:26:00,
2013-10-23 14:30:00,42.8,33.0,30.03,WSW,256,9.0,9.0,68,0.00,,,0.01,Wunderground v.1.15,2013-10-23 19:30:00,
2013-10-23 14:32:00,42.8,32.6,30.03,WSW,248,8.0,9.0,67,0.00,,,0.01,Wunderground v.1.15,2013-10-23 19:32:00,
2013-10-23 14:34:00,42.8,32.2,30.03,West,270,8.0,9.0,66,0.00,,,0.01,Wunderground v.1.15,2013-10-23 19:34:00,
2013-10-23 14:38:00,42.7,32.9,30.03,West,269,7.0,9.0,68,0.00,,,0.01,Wunderground v.1.15,2013-10-23 19:38:00,
2013-10-23 14:40:00,42.7,32.5,30.03,WNW,290,8.0,8.0,67,0.00,,,0.01,Wunderground v.1.15,2013-10-23 19:40:00,
2013-10-23 14:42:00,42.6,32.4,30.03,WNW,287,7.0,8.0,67,0.00,,,0.01,Wunderground v.1.15,2013-10-23 19:42:00,
2013-10-23 14:46:00,42.6,32.8,30.02,WNW,284,7.0,8.0,68,0.00,,,0.01,Wunderground v.1.15,2013-10-23 19:46:00,
2013-10-23 14:48:00,42.6,32.4,30.02,WNW,299,7.0,8.0,67,0.00,,,0.01,Wunderground v.1.15,2013-10-23 19:48:00,
2013-10-23 14:50:00,42.6,31.3,30.03,NW,313,7.0,13.0,64,0.00,,,0.01,Wunderground v.1.15,2013-10-23 19:50:00,
2013-10-23 14:54:00,42.6,31.3,30.03,West,266,8.0,13.0,64,0.00,,,0.01,Wunderground v.1.15,2013-10-23 19:54:00,
2013-10-23 14:56:00,42.6,30.9,30.03,WNW,291,9.0,13.0,63,0.00,,,0.01,Wunderground v.1.15,2013-10-23 19:56:00,
2013-10-23 14:58:00,42.5,30.8,30.03,WNW,298,10.0,13.0,63,0.00,,,0.01,Wunderground v.1.15,2013-10-23 19:58:00,
2013-10-23 15:00:00,42.5,31.2,30.03,WNW,294,9.0,9.0,64,0.00,,,0.01,Wunderground v.1.15,2013-10-23 20:00:00,
2013-10-23 15:04:00,42.4,30.7,30.03,West,262,9.0,12.0,63,0.00,,,0.01,Wunderground v.1.15,2013-10-23 20:04:00,
2013-10-23 15:06:00,42.3,30.6,30.03,WSW,256,9.0,12.0,63,0.00,,,0.01,Wunderground v.1.15,2013-10-23 20:06:00,
2013-10-23 15:08:00,42.2,30.9,30.03,West,266,9.0,12.0,64,0.00,,,0.01,Wunderground v.1.15,2013-10-23 20:08:00,
2013-10-23 15:12:00,42.1,31.9,30.03,WNW,287,9.0,10.0,67,0.00,,,0.01,Wunderground v.1.15,2013-10-23 20:12:00,
2013-10-23 15:16:00,42.0,31.8,30.03,WSW,256,8.0,10.0,67,0.00,,,0.01,Wunderground v.1.15,2013-10-23 20:16:00,
2013-10-23 15:18:00,42.0,32.2,30.03,West,269,7.0,10.0,68,0.00,,,0.01,Wunderground v.1.15,2013-10-23 20:18:00,
2013-10-23 15:20:00,41.9,31.7,30.03,WNW,301,7.0,7.0,67,0.00,,,0.01,Wunderground v.1.15,2013-10-23 20:20:00,
2013-10-23 15:22:00,41.8,32.0,30.03,WNW,290,7.0,8.0,68,0.00,,,0.01,Wunderground v.1.15,2013-10-23 20:22:00,
2013-10-23 15:24:00,41.7,31.9,30.03,NW,326,7.0,10.0,68,0.00,,,0.01,Wunderground v.1.15,2013-10-23 20:24:00,
2013-10-23 15:26:00,41.6,31.8,30.03,WNW,291,7.0,10.0,68,0.00,,,0.01,Wunderground v.1.15,2013-10-23 20:26:00,
2013-10-23 15:28:00,41.5,32.1,30.03,WNW,302,8.0,10.0,69,0.00,,,0.01,Wunderground v.1.15,2013-10-23 20:28:00,
2013-10-23 15:30:00,41.5,32.1,30.03,WNW,288,8.0,9.0,69,0.00,,,0.01,Wunderground v.1.15,2013-10-23 20:30:00,
2013-10-23 15:32:00,41.5,32.1,30.03,WNW,288,7.0,9.0,69,0.00,,,0.01,Wunderground v.1.15,2013-10-23 20:32:00,
2013-10-23 15:34:00,41.5,32.1,30.03,NW,308,7.0,9.0,69,0.00,,,0.01,Wunderground v.1.15,2013-10-23 20:34:00,
2013-10-23 15:36:00,41.6,32.2,30.03,WNW,295,6.0,9.0,69,0.00,,,0.01,Wunderground v.1.15,2013-10-23 20:36:00,
2013-10-23 15:40:00,41.6,32.2,30.03,WNW,301,6.0,6.0,69,0.00,,,0.01,Wunderground v.1.15,2013-10-23 20:40:00,
2013-10-23 15:42:00,41.7,32.6,30.03,West,271,6.0,8.0,70,0.00,,,0.01,Wunderground v.1.15,2013-10-23 20:42:00,
2013-10-23 15:46:00,42.0,32.6,30.03,West,266,5.0,8.0,69,0.00,,,0.01,Wunderground v.1.15,2013-10-23 20:46:00,
2013-10-23 15:48:00,42.1,32.7,30.03,West,271,5.0,8.0,69,0.00,,,0.01,Wunderground v.1.15,2013-10-23 20:48:00,
2013-10-23 15:52:00,42.2,32.4,30.03,NW,321,6.0,8.0,68,0.00,,,0.01,Wunderground v.1.15,2013-10-23 20:52:00,
2013-10-23 15:54:00,42.1,32.3,30.03,WNW,284,6.0,9.0,68,0.00,,,0.01,Wunderground v.1.15,2013-10-23 20:54:00,
2013-10-23 15:56:00,42.1,31.9,30.03,West,277,6.0,9.0,67,0.00,,,0.01,Wunderground v.1.15,2013-10-23 20:56:00,
2013-10-23 15:58:00,42.1,32.3,30.03,West,276,7.0,9.0,68,0.00,,,0.01,Wunderground v.1.15,2013-10-23 20:58:00,
2013-10-23 16:00:00,42.2,32.0,30.03,West,271,7.0,8.0,67,0.00,,,0.01,Wunderground v.1.15,2013-10-23 21:00:00,
2013-10-23 16:02:00,42.2,32.8,30.03,West,267,7.0,8.0,69,0.00,,,0.01,Wunderground v.1.15,2013-10-23 21:02:00,
2013-10-23 16:04:00,42.2,32.4,30.03,West,278,7.0,8.0,68,0.00,,,0.01,Wunderground v.1.15,2013-10-23 21:04:00,
2013-10-23 16:08:00,42.2,32.4,30.03,West,270,7.0,8.0,68,0.00,,,0.01,Wunderground v.1.15,2013-10-23 21:08:00,
2013-10-23 16:10:00,42.2,32.4,30.03,West,271,7.0,7.0,68,0.00,,,0.01,Wunderground v.1.15,2013-10-23 21:10:00,
2013-10-23 16:12:00,42.2,32.4,30.03,WNW,283,7.0,8.0,68,0.00,,,0.01,Wunderground v.1.15,2013-10-23 21:12:00,
2013-10-23 16:14:00,42.2,32.4,30.03,WNW,294,6.0,8.0,68,0.00,,,0.01,Wunderground v.1.15,2013-10-23 21:14:00,
2013-10-23 16:18:00,42.2,31.3,30.03,WSW,248,7.0,13.0,65,0.00,,,0.01,Wunderground v.1.15,2013-10-23 21:18:00,
2013-10-23 16:20:00,42.1,30.8,30.03,West,281,7.0,7.0,64,0.00,,,0.01,Wunderground v.1.15,2013-10-23 21:20:00,
2013-10-23 16:22:00,42.1,31.2,30.03,West,273,7.0,8.0,65,0.00,,,0.01,Wunderground v.1.15,2013-10-23 21:22:00,
2013-10-23 16:24:00,42.0,31.1,30.03,WSW,256,7.0,8.0,65,0.00,,,0.01,Wunderground v.1.15,2013-10-23 21:24:00,
2013-10-23 16:29:00,41.8,30.9,30.03,WNW,287,8.0,8.0,65,0.00,,,0.01,Wunderground v.1.15,2013-10-23 21:29:00,
2013-10-23 16:30:00,41.8,31.3,30.03,West,281,8.0,8.0,66,0.00,,,0.01,Wunderground v.1.15,2013-10-23 21:30:00,
2013-10-23 16:32:00,41.7,31.2,30.03,SW,224,8.0,8.0,66,0.00,,,0.01,Wunderground v.1.15,2013-10-23 21:32:00,
2013-10-23 16:34:00,41.7,31.5,30.03,SW,235,8.0,8.0,67,0.00,,,0.01,Wunderground v.1.15,2013-10-23 21:34:00,
2013-10-23 16:38:00,41.7,31.2,30.03,South,186,6.0,8.0,66,0.00,,,0.01,Wunderground v.1.15,2013-10-23 21:38:00,
2013-10-23 16:40:00,41.6,31.1,30.03,WSW,255,6.0,11.0,66,0.00,,,0.01,Wunderground v.1.15,2013-10-23 21:40:00,
2013-10-23 16:42:00,41.6,30.7,30.04,WSW,245,6.0,11.0,65,0.00,,,0.01,Wunderground v.1.15,2013-10-23 21:42:00,
2013-10-23 16:46:00,41.5,30.6,30.04,West,281,8.0,11.0,65,0.00,,,0.01,Wunderground v.1.15,2013-10-23 21:46:00,
2013-10-23 16:48:00,41.5,31.0,30.04,West,273,9.0,11.0,66,0.00,,,0.01,Wunderground v.1.15,2013-10-23 21:48:00,
2013-10-23 16:50:00,41.5,31.0,30.04,West,262,9.0,11.0,66,0.00,,,0.01,Wunderground v.1.15,2013-10-23 21:50:00,
2013-10-23 16:54:00,41.3,30.8,30.04,West,260,9.0,14.0,66,0.00,,,0.01,Wunderground v.1.15,2013-10-23 21:54:00,
2013-10-23 16:58:00,41.2,30.7,30.04,West,262,10.0,14.0,66,0.00,,,0.01,Wunderground v.1.15,2013-10-23 21:58:00,
2013-10-23 17:02:00,41.0,30.1,30.03,WNW,300,9.0,11.0,65,0.00,,,0.01,Wunderground v.1.15,2013-10-23 22:02:00,
2013-10-23 17:04:00,41.0,30.1,30.03,West,281,9.0,11.0,65,0.00,,,0.01,Wunderground v.1.15,2013-10-23 22:04:00,
2013-10-23 17:06:00,40.9,30.0,30.03,West,273,8.0,11.0,65,0.00,,,0.01,Wunderground v.1.15,2013-10-23 22:06:00,
2013-10-23 17:10:00,40.8,29.9,30.03,West,274,6.0,6.0,65,0.00,,,0.01,Wunderground v.1.15,2013-10-23 22:10:00,
2013-10-23 17:12:00,40.8,29.9,30.03,WSW,255,6.0,8.0,65,0.00,,,0.01,Wunderground v.1.15,2013-10-23 22:12:00,
2013-10-23 17:14:00,40.8,30.3,30.03,WNW,283,6.0,8.0,66,0.00,,,0.01,Wunderground v.1.15,2013-10-23 22:14:00,
2013-10-23 17:16:00,40.8,30.7,30.03,WSW,238,6.0,8.0,67,0.00,,,0.01,Wunderground v.1.15,2013-10-23 22:16:00,
2013-10-23 17:20:00,40.7,30.6,30.03,WSW,255,5.0,5.0,67,0.00,,,0.01,Wunderground v.1.15,2013-10-23 22:20:00,
2013-10-23 17:22:00,40.7,30.6,30.03,West,264,5.0,8.0,67,0.00,,,0.01,Wunderground v.1.15,2013-10-23 22:22:00,
2013-10-23 17:24:00,40.7,30.6,30.04,WSW,253,5.0,8.0,67,0.00,,,0.01,Wunderground v.1.15,2013-10-23 22:24:00,
2013-10-23 17:26:00,40.7,30.6,30.03,WSW,245,5.0,8.0,67,0.00,,,0.01,Wunderground v.1.15,2013-10-23 22:26:00,
2013-10-23 17:28:00,40.7,30.6,30.04,West,263,4.0,8.0,67,0.00,,,0.01,Wunderground v.1.15,2013-10-23 22:28:00,
2013-10-23 17:30:00,40.7,30.6,30.03,West,259,4.0,8.0,67,0.00,,,0.01,Wunderground v.1.15,2013-10-23 22:30:00,
2013-10-23 17:34:00,40.7,30.6,30.04,West,278,4.0,8.0,67,0.00,,,0.01,Wunderground v.1.15,2013-10-23 22:34:00,
2013-10-23 17:36:00,40.6,30.9,30.04,WNW,293,4.0,8.0,68,0.00,,,0.01,Wunderground v.1.15,2013-10-23 22:36:00,
2013-10-23 17:38:00,40.6,30.5,30.04,West,276,4.0,8.0,67,0.00,,,0.01,Wunderground v.1.15,2013-10-23 22:38:00,
2013-10-23 17:42:00,40.6,30.9,30.04,West,259,5.0,8.0,68,0.00,,,0.01,Wunderground v.1.15,2013-10-23 22:42:00,
2013-10-23 17:46:00,40.5,30.8,30.04,West,264,4.0,8.0,68,0.00,,,0.01,Wunderground v.1.15,2013-10-23 22:46:00,
2013-10-23 17:48:00,40.4,30.7,30.04,WNW,290,4.0,8.0,68,0.00,,,0.01,Wunderground v.1.15,2013-10-23 22:48:00,
2013-10-23 17:52:00,40.4,31.0,30.04,SW,231,4.0,8.0,69,0.00,,,0.01,Wunderground v.1.15,2013-10-23 22:52:00,
2013-10-23 17:56:00,40.3,30.6,30.04,WSW,252,4.0,9.0,68,0.00,,,0.01,Wunderground v.1.15,2013-10-23 22:56:00,
2013-10-23 17:58:00,40.3,30.9,30.04,WSW,253,4.0,9.0,69,0.00,,,0.01,Wunderground v.1.15,2013-10-23 22:58:00,
2013-10-23 18:02:00,40.1,30.7,30.04,West,269,4.0,8.0,69,0.00,,,0.01,Wunderground v.1.15,2013-10-23 23:02:00,
2013-10-23 18:06:00,40.0,31.0,30.04,SW,231,4.0,8.0,70,0.00,,,0.01,Wunderground v.1.15,2013-10-23 23:06:00,
2013-10-23 18:09:00,39.9,30.9,30.04,SW,214,4.0,8.0,70,0.00,,,0.01,Wunderground v.1.15,2013-10-23 23:09:00,
2013-10-23 18:10:00,39.9,30.9,30.04,West,260,4.0,4.0,70,0.00,,,0.01,Wunderground v.1.15,2013-10-23 23:10:00,
2013-10-23 18:16:00,39.8,31.2,30.04,WSW,238,3.0,8.0,71,0.00,,,0.01,Wunderground v.1.15,2013-10-23 23:16:00,
2013-10-23 18:18:00,39.8,31.2,30.04,West,281,3.0,8.0,71,0.00,,,0.01,Wunderground v.1.15,2013-10-23 23:18:00,
2013-10-23 18:20:00,39.7,31.1,30.04,WSW,240,3.0,8.0,71,0.00,,,0.01,Wunderground v.1.15,2013-10-23 23:20:00,
2013-10-23 18:24:00,39.7,31.1,30.04,West,272,3.0,8.0,71,0.00,,,0.01,Wunderground v.1.15,2013-10-23 23:24:00,
2013-10-23 18:26:00,39.7,31.1,30.04,West,266,3.0,8.0,71,0.00,,,0.01,Wunderground v.1.15,2013-10-23 23:26:00,
2013-10-23 18:28:00,39.7,31.1,30.04,WSW,258,3.0,8.0,71,0.00,,,0.01,Wunderground v.1.15,2013-10-23 23:28:00,
2013-10-23 18:30:00,39.7,31.1,30.04,SW,231,3.0,8.0,71,0.00,,,0.01,Wunderground v.1.15,2013-10-23 23:30:00,
2013-10-23 18:32:00,39.7,31.1,30.04,West,276,3.0,8.0,71,0.00,,,0.01,Wunderground v.1.15,2013-10-23 23:32:00,
2013-10-23 18:39:00,39.7,31.1,30.04,West,276,3.0,8.0,71,0.00,,,0.01,Wunderground v.1.15,2013-10-23 23:39:00,
2013-10-23 18:40:00,39.7,31.1,30.04,SW,231,3.0,8.0,71,0.00,,,0.01,Wunderground v.1.15,2013-10-23 23:40:00,
2013-10-23 18:42:00,39.7,31.1,30.04,WSW,242,3.0,8.0,71,0.00,,,0.01,Wunderground v.1.15,2013-10-23 23:42:00,
2013-10-23 18:48:00,39.7,31.1,30.05,WSW,239,4.0,8.0,71,0.00,,,0.01,Wunderground v.1.15,2013-10-23 23:48:00,
2013-10-23 18:50:00,39.7,31.1,30.05,WSW,242,4.0,4.0,71,0.00,,,0.01,Wunderground v.1.15,2013-10-23 23:50:00,
2013-10-23 18:52:00,39.7,31.1,30.05,SW,233,4.0,8.0,71,0.00,,,0.01,Wunderground v.1.15,2013-10-23 23:52:00,
2013-10-23 18:54:00,39.7,31.1,30.05,West,274,3.0,8.0,71,0.00,,,0.01,Wunderground v.1.15,2013-10-23 23:54:00,
2013-10-23 18:58:00,39.7,30.7,30.05,West,260,3.0,8.0,70,0.00,,,0.01,Wunderground v.1.15,2013-10-23 23:58:00,
2013-10-23 19:00:00,39.6,31.0,30.05,West,264,3.0,3.0,71,0.00,,,0.01,Wunderground v.1.15,2013-10-24 00:00:00,
2013-10-23 19:04:00,39.6,31.0,30.05,West,264,3.0,8.0,71,0.00,,,0.01,Wunderground v.1.15,2013-10-24 00:04:00,
2013-10-23 19:06:00,39.6,30.6,30.05,SW,224,3.0,8.0,70,0.00,,,0.01,Wunderground v.1.15,2013-10-24 00:06:00,
2013-10-23 19:08:00,39.6,30.6,30.05,SW,217,4.0,8.0,70,0.00,,,0.01,Wunderground v.1.15,2013-10-24 00:08:00,
2013-10-23 19:12:00,39.7,30.7,30.05,SW,235,4.0,8.0,70,0.00,,,0.01,Wunderground v.1.15,2013-10-24 00:12:00,
2013-10-23 19:14:00,39.6,30.6,30.05,West,263,4.0,8.0,70,0.00,,,0.01,Wunderground v.1.15,2013-10-24 00:14:00,
2013-10-23 19:18:00,39.6,30.6,30.05,WSW,240,4.0,8.0,70,0.00,,,0.01,Wunderground v.1.15,2013-10-24 00:18:00,
2013-10-23 19:20:00,39.7,30.7,30.05,WSW,256,4.0,8.0,70,0.00,,,0.01,Wunderground v.1.15,2013-10-24 00:20:00,
2013-10-23 19:22:00,39.7,30.7,30.05,SW,231,4.0,8.0,70,0.00,,,0.01,Wunderground v.1.15,2013-10-24 00:22:00,
2013-10-23 19:26:00,39.7,30.7,30.05,WSW,246,4.0,8.0,70,0.00,,,0.01,Wunderground v.1.15,2013-10-24 00:26:00,
2013-10-23 19:28:00,39.7,30.4,30.05,WSW,245,4.0,8.0,69,0.00,,,0.01,Wunderground v.1.15,2013-10-24 00:28:00,
2013-10-23 19:30:00,39.7,30.4,30.05,WSW,243,4.0,8.0,69,0.00,,,0.01,Wunderground v.1.15,2013-10-24 00:30:00,
2013-10-23 19:32:00,39.7,30.4,30.05,WSW,248,4.0,9.0,69,0.00,,,0.01,Wunderground v.1.15,2013-10-24 00:32:00,
2013-10-23 19:34:00,39.7,30.4,30.05,SW,235,5.0,9.0,69,0.00,,,0.01,Wunderground v.1.15,2013-10-24 00:34:00,
2013-10-23 19:36:00,39.7,30.4,30.05,WSW,255,5.0,9.0,69,0.00,,,0.01,Wunderground v.1.15,2013-10-24 00:36:00,
2013-10-23 19:38:00,39.7,30.4,30.05,SW,228,5.0,9.0,69,0.00,,,0.01,Wunderground v.1.15,2013-10-24 00:38:00,
2013-10-23 19:42:00,39.7,30.7,30.05,SW,231,6.0,7.0,70,0.00,,,0.01,Wunderground v.1.15,2013-10-24 00:42:00,
2013-10-23 19:46:00,39.6,30.6,30.05,West,260,6.0,9.0,70,0.00,,,0.01,Wunderground v.1.15,2013-10-24 00:46:00,
2013-10-23 19:48:00,39.6,30.6,30.05,West,260,6.0,9.0,70,0.00,,,0.01,Wunderground v.1.15,2013-10-24 00:48:00,
2013-10-23 19:52:00,39.6,30.6,30.06,SW,233,5.0,8.0,70,0.00,,,0.01,Wunderground v.1.15,2013-10-24 00:52:00,
2013-10-23 19:54:00,39.6,30.6,30.05,West,259,5.0,8.0,70,0.00,,,0.01,Wunderground v.1.15,2013-10-24 00:54:00,
2013-10-23 19:56:00,39.6,30.6,30.05,SW,219,6.0,8.0,70,0.00,,,0.01,Wunderground v.1.15,2013-10-24 00:56:00,
2013-10-23 19:58:00,39.5,30.9,30.06,West,264,5.0,8.0,71,0.00,,,0.01,Wunderground v.1.15,2013-10-24 00:58:00,
2013-10-23 20:02:00,39.5,30.9,30.06,WSW,238,5.0,6.0,71,0.00,,,0.01,Wunderground v.1.15,2013-10-24 01:02:00,
2013-10-23 20:04:00,39.5,30.9,30.06,WSW,243,5.0,8.0,71,0.00,,,0.01,Wunderground v.1.15,2013-10-24 01:04:00,
2013-10-23 20:08:00,39.5,30.9,30.06,West,262,5.0,8.0,71,0.00,,,0.01,Wunderground v.1.15,2013-10-24 01:08:00,
2013-10-23 20:10:00,39.5,31.2,30.06,SSW,211,5.0,8.0,72,0.00,,,0.01,Wunderground v.1.15,2013-10-24 01:10:00,
2013-10-23 20:12:00,39.5,31.2,30.06,SW,231,5.0,8.0,72,0.00,,,0.01,Wunderground v.1.15,2013-10-24 01:12:00,
2013-10-23 20:16:00,39.5,30.9,30.06,West,266,5.0,8.0,71,0.00,,,0.01,Wunderground v.1.15,2013-10-24 01:16:00,
2013-10-23 20:18:00,39.6,31.0,30.06,West,278,5.0,8.0,71,0.00,,,0.01,Wunderground v.1.15,2013-10-24 01:18:00,
2013-10-23 20:24:00,39.6,31.0,30.06,WSW,257,5.0,8.0,71,0.00,,,0.01,Wunderground v.1.15,2013-10-24 01:24:00,
2013-10-23 20:26:00,39.6,31.3,30.06,West,267,5.0,8.0,72,0.00,,,0.01,Wunderground v.1.15,2013-10-24 01:26:00,
2013-10-23 20:28:00,39.5,31.2,30.06,WSW,240,5.0,8.0,72,0.00,,,0.01,Wunderground v.1.15,2013-10-24 01:28:00,
2013-10-23 20:30:00,39.5,31.2,30.06,West,271,5.0,5.0,72,0.00,,,0.01,Wunderground v.1.15,2013-10-24 01:30:00,
2013-10-23 20:32:00,39.5,31.2,30.06,WNW,292,5.0,6.0,72,0.00,,,0.01,Wunderground v.1.15,2013-10-24 01:32:00,
2013-10-23 20:36:00,39.5,31.2,30.06,WSW,242,5.0,8.0,72,0.00,,,0.01,Wunderground v.1.15,2013-10-24 01:36:00,
2013-10-23 20:38:00,39.4,31.1,30.06,West,273,5.0,8.0,72,0.00,,,0.01,Wunderground v.1.15,2013-10-24 01:38:00,
2013-10-23 20:40:00,39.4,31.1,30.06,West,276,5.0,5.0,72,0.00,,,0.01,Wunderground v.1.15,2013-10-24 01:40:00,
2013-10-23 20:44:00,39.3,31.4,30.06,WSW,243,4.0,8.0,73,0.00,,,0.01,Wunderground v.1.15,2013-10-24 01:44:00,
2013-10-23 20:46:00,39.3,31.4,30.06,West,274,4.0,8.0,73,0.00,,,0.01,Wunderground v.1.15,2013-10-24 01:46:00,
2013-10-23 20:50:00,39.3,31.4,30.06,West,260,4.0,4.0,73,0.00,,,0.01,Wunderground v.1.15,2013-10-24 01:50:00,
2013-10-23 20:52:00,39.3,31.7,30.06,WSW,255,4.0,6.0,74,0.00,,,0.01,Wunderground v.1.15,2013-10-24 01:52:00,
2013-10-23 20:54:00,39.3,31.7,30.06,West,267,4.0,8.0,74,0.00,,,0.01,Wunderground v.1.15,2013-10-24 01:54:00,
2013-10-23 20:56:00,39.3,31.7,30.06,West,259,5.0,8.0,74,0.00,,,0.01,Wunderground v.1.15,2013-10-24 01:56:00,
2013-10-23 21:02:00,39.2,31.6,30.06,WNW,285,5.0,6.0,74,0.00,,,0.01,Wunderground v.1.15,2013-10-24 02:02:00,
2013-10-23 21:04:00,39.2,31.6,30.06,West,279,5.0,8.0,74,0.00,,,0.01,Wunderground v.1.15,2013-10-24 02:04:00,
2013-10-23 21:06:00,39.2,31.6,30.06,WSW,239,5.0,8.0,74,0.00,,,0.01,Wunderground v.1.15,2013-10-24 02:06:00,
2013-10-23 21:08:00,39.1,31.8,30.06,West,276,5.0,8.0,75,0.00,,,0.01,Wunderground v.1.15,2013-10-24 02:08:00,
2013-10-23 21:12:00,39.1,31.8,30.06,WSW,248,5.0,8.0,75,0.00,,,0.01,Wunderground v.1.15,2013-10-24 02:12:00,
2013-10-23 21:14:00,39.1,31.8,30.06,WSW,245,5.0,8.0,75,0.00,,,0.01,Wunderground v.1.15,2013-10-24 02:14:00,
2013-10-23 21:16:00,39.1,31.8,30.06,SW,231,5.0,8.0,75,0.00,,,0.01,Wunderground v.1.15,2013-10-24 02:16:00,
2013-10-23 21:18:00,39.1,31.8,30.06,SW,235,5.0,8.0,75,0.00,,,0.01,Wunderground v.1.15,2013-10-24 02:18:00,
2013-10-23 21:20:00,39.1,31.8,30.06,West,267,5.0,5.0,75,0.00,,,0.01,Wunderground v.1.15,2013-10-24 02:20:00,
2013-10-23 21:22:00,39.1,32.2,30.06,WSW,252,5.0,8.0,76,0.00,,,0.01,Wunderground v.1.15,2013-10-24 02:22:00,
2013-10-23 21:24:00,39.0,32.1,30.06,WSW,240,5.0,8.0,76,0.00,,,0.01,Wunderground v.1.15,2013-10-24 02:24:00,
2013-10-23 21:28:00,39.0,32.1,30.06,SW,228,5.0,8.0,76,0.00,,,0.01,Wunderground v.1.15,2013-10-24 02:28:00,
2013-10-23 21:30:00,39.0,32.1,30.06,NW,304,5.0,5.0,76,0.00,,,0.01,Wunderground v.1.15,2013-10-24 02:30:00,
2013-10-23 21:32:00,39.0,32.4,30.06,WNW,295,5.0,7.0,77,0.00,,,0.01,Wunderground v.1.15,2013-10-24 02:32:00,
2013-10-23 21:34:00,38.9,32.3,30.06,WNW,283,4.0,8.0,77,0.00,,,0.01,Wunderground v.1.15,2013-10-24 02:34:00,
2013-10-23 21:36:00,38.9,32.3,30.06,West,272,4.0,8.0,77,0.00,,,0.01,Wunderground v.1.15,2013-10-24 02:36:00,
2013-10-23 21:38:00,38.9,32.6,30.06,West,267,5.0,8.0,78,0.00,,,0.01,Wunderground v.1.15,2013-10-24 02:38:00,
2013-10-23 21:42:00,38.8,32.5,30.06,WSW,240,4.0,8.0,78,0.00,,,0.01,Wunderground v.1.15,2013-10-24 02:42:00,
2013-10-23 21:44:00,38.8,32.5,30.07,WNW,283,4.0,8.0,78,0.00,,,0.01,Wunderground v.1.15,2013-10-24 02:44:00,
2013-10-23 21:46:00,38.8,32.8,30.06,WSW,238,4.0,8.0,79,0.00,,,0.01,Wunderground v.1.15,2013-10-24 02:46:00,
2013-10-23 21:48:00,38.8,32.8,30.06,WSW,253,4.0,8.0,79,0.00,,,0.01,Wunderground v.1.15,2013-10-24 02:48:00,
2013-10-23 21:50:00,38.8,32.8,30.06,SW,226,4.0,4.0,79,0.00,,,0.01,Wunderground v.1.15,2013-10-24 02:50:00,
2013-10-23 21:52:00,38.7,32.7,30.06,WSW,255,4.0,7.0,79,0.00,,,0.01,Wunderground v.1.15,2013-10-24 02:52:00,
2013-10-23 21:56:00,38.7,32.7,30.06,WSW,250,4.0,8.0,79,0.00,,,0.01,Wunderground v.1.15,2013-10-24 02:56:00,
2013-10-23 21:58:00,38.7,32.7,30.06,West,277,4.0,8.0,79,0.00,,,0.01,Wunderground v.1.15,2013-10-24 02:58:00,
2013-10-23 22:00:00,38.7,33.1,30.07,WSW,239,4.0,8.0,80,0.00,,,0.01,Wunderground v.1.15,2013-10-24 03:00:00,
2013-10-23 22:02:00,38.7,33.1,30.07,West,272,4.0,8.0,80,0.00,,,0.01,Wunderground v.1.15,2013-10-24 03:02:00,
2013-10-23 22:04:00,38.6,33.0,30.07,WNW,283,4.0,8.0,80,0.00,,,0.01,Wunderground v.1.15,2013-10-24 03:04:00,
2013-10-23 22:10:00,38.6,33.0,30.07,West,262,4.0,8.0,80,0.00,,,0.01,Wunderground v.1.15,2013-10-24 03:10:00,
2013-10-23 22:12:00,38.6,33.0,30.07,WNW,288,4.0,8.0,80,0.00,,,0.01,Wunderground v.1.15,2013-10-24 03:12:00,
2013-10-23 22:14:00,38.6,33.0,30.07,West,278,4.0,9.0,80,0.00,,,0.01,Wunderground v.1.15,2013-10-24 03:14:00,
2013-10-23 22:16:00,38.6,33.0,30.07,WSW,250,4.0,9.0,80,0.00,,,0.01,Wunderground v.1.15,2013-10-24 03:16:00,
2013-10-23 22:20:00,38.6,33.3,30.07,West,259,4.0,8.0,81,0.00,,,0.01,Wunderground v.1.15,2013-10-24 03:20:00,
2013-10-23 22:22:00,38.6,33.3,30.06,WSW,250,4.0,8.0,81,0.00,,,0.01,Wunderground v.1.15,2013-10-24 03:22:00,
2013-10-23 22:26:00,38.5,33.2,30.07,WSW,253,4.0,8.0,81,0.00,,,0.01,Wunderground v.1.15,2013-10-24 03:26:00,
2013-10-23 22:28:00,38.5,33.2,30.07,SW,226,4.0,8.0,81,0.00,,,0.01,Wunderground v.1.15,2013-10-24 03:28:00,
2013-10-23 22:32:00,38.4,33.4,30.07,WSW,250,4.0,8.0,82,0.00,,,0.01,Wunderground v.1.15,2013-10-24 03:32:00,
2013-10-23 22:34:00,38.4,33.4,30.07,West,269,4.0,8.0,82,0.00,,,0.01,Wunderground v.1.15,2013-10-24 03:34:00,
2013-10-23 22:36:00,38.4,33.4,30.06,WSW,240,4.0,8.0,82,0.00,,,0.01,Wunderground v.1.15,2013-10-24 03:36:00,
2013-10-23 22:38:00,38.4,33.4,30.07,WSW,250,4.0,8.0,82,0.00,,,0.01,Wunderground v.1.15,2013-10-24 03:38:00,
2013-10-23 22:40:00,38.4,33.4,30.07,West,267,4.0,8.0,82,0.00,,,0.01,Wunderground v.1.15,2013-10-24 03:40:00,
2013-10-23 22:42:00,38.3,33.3,30.06,West,263,4.0,8.0,82,0.00,,,0.01,Wunderground v.1.15,2013-10-24 03:42:00,
2013-10-23 22:44:00,38.3,33.3,30.07,WSW,245,4.0,8.0,82,0.00,,,0.01,Wunderground v.1.15,2013-10-24 03:44:00,
2013-10-23 22:46:00,38.3,33.6,30.06,WSW,252,4.0,8.0,83,0.00,,,0.01,Wunderground v.1.15,2013-10-24 03:46:00,
2013-10-23 22:48:00,38.3,33.3,30.06,WSW,257,4.0,8.0,82,0.00,,,0.01,Wunderground v.1.15,2013-10-24 03:48:00,
2013-10-23 22:50:00,38.3,33.6,30.06,WNW,295,4.0,8.0,83,0.00,,,0.01,Wunderground v.1.15,2013-10-24 03:50:00,
2013-10-23 22:54:00,38.3,33.6,30.07,WNW,294,4.0,8.0,83,0.00,,,0.01,Wunderground v.1.15,2013-10-24 03:54:00,
2013-10-23 22:56:00,38.2,33.5,30.07,WSW,252,4.0,8.0,83,0.00,,,0.01,Wunderground v.1.15,2013-10-24 03:56:00,
2013-10-23 22:58:00,38.3,33.6,30.06,West,263,4.0,8.0,83,0.00,,,0.01,Wunderground v.1.15,2013-10-24 03:58:00,
2013-10-23 23:00:00,38.3,33.6,30.06,WSW,257,4.0,8.0,83,0.00,,,0.01,Wunderground v.1.15,2013-10-24 04:00:00,
2013-10-23 23:02:00,38.3,33.6,30.06,WSW,238,4.0,8.0,83,0.00,,,0.01,Wunderground v.1.15,2013-10-24 04:02:00,
2013-10-23 23:04:00,38.3,33.6,30.06,WSW,242,4.0,8.0,83,0.00,,,0.01,Wunderground v.1.15,2013-10-24 04:04:00,
2013-10-23 23:08:00,38.2,33.5,30.06,WSW,253,4.0,8.0,83,0.00,,,0.01,Wunderground v.1.15,2013-10-24 04:08:00,
2013-10-23 23:10:00,38.2,33.8,30.06,WSW,245,4.0,8.0,84,0.00,,,0.01,Wunderground v.1.15,2013-10-24 04:10:00,
2013-10-23 23:12:00,38.1,33.7,30.06,West,262,4.0,8.0,84,0.00,,,0.01,Wunderground v.1.15,2013-10-24 04:12:00,
2013-10-23 23:14:00,38.1,33.7,30.06,SW,231,3.0,8.0,84,0.00,,,0.01,Wunderground v.1.15,2013-10-24 04:14:00,
2013-10-23 23:18:00,38.0,33.6,30.06,SW,226,3.0,8.0,84,0.00,,,0.01,Wunderground v.1.15,2013-10-24 04:18:00,
2013-10-23 23:20:00,38.0,33.6,30.06,WSW,242,3.0,8.0,84,0.00,,,0.01,Wunderground v.1.15,2013-10-24 04:20:00,
2013-10-23 23:22:00,38.0,33.6,30.06,WSW,255,4.0,8.0,84,0.00,,,0.01,Wunderground v.1.15,2013-10-24 04:22:00,
2013-10-23 23:24:00,38.0,33.6,30.06,WSW,250,4.0,8.0,84,0.00,,,0.01,Wunderground v.1.15,2013-10-24 04:24:00,
2013-10-23 23:26:00,38.0,33.6,30.06,WSW,249,4.0,8.0,84,0.00,,,0.01,Wunderground v.1.15,2013-10-24 04:26:00,
2013-10-23 23:28:00,38.0,33.6,30.06,WSW,252,4.0,8.0,84,0.00,,,0.01,Wunderground v.1.15,2013-10-24 04:28:00,
2013-10-23 23:30:00,38.0,33.6,30.06,SW,232,4.0,8.0,84,0.00,,,0.01,Wunderground v.1.15,2013-10-24 04:30:00,
2013-10-23 23:36:00,37.9,33.8,30.06,SW,235,4.0,8.0,85,0.00,,,0.01,Wunderground v.1.15,2013-10-24 04:36:00,
2013-10-23 23:38:00,37.9,33.8,30.06,SW,235,3.0,8.0,85,0.00,,,0.01,Wunderground v.1.15,2013-10-24 04:38:00,
2013-10-23 23:40:00,37.9,33.8,30.06,WSW,253,4.0,8.0,85,0.00,,,0.01,Wunderground v.1.15,2013-10-24 04:40:00,
2013-10-23 23:42:00,37.9,33.8,30.06,WSW,240,4.0,8.0,85,0.00,,,0.01,Wunderground v.1.15,2013-10-24 04:42:00,
2013-10-23 23:44:00,37.8,33.7,30.06,WSW,240,4.0,8.0,85,0.00,,,0.01,Wunderground v.1.15,2013-10-24 04:44:00,
2013-10-23 23:46:00,37.8,34.0,30.06,SW,235,5.0,8.0,86,0.00,,,0.01,Wunderground v.1.15,2013-10-24 04:46:00,
2013-10-23 23:48:00,37.8,34.0,30.06,WSW,238,5.0,8.0,86,0.00,,,0.01,Wunderground v.1.15,2013-10-24 04:48:00,
2013-10-23 23:52:00,37.8,34.0,30.06,SW,235,5.0,8.0,86,0.00,,,0.01,Wunderground v.1.15,2013-10-24 04:52:00,
2013-10-23 23:54:00,37.8,34.0,30.06,SW,221,6.0,8.0,86,0.00,,,0.01,Wunderground v.1.15,2013-10-24 04:54:00,
2013-10-23 23:56:00,37.8,34.0,30.06,SW,235,6.0,8.0,86,0.00,,,0.01,Wunderground v.1.15,2013-10-24 04:56:00,